createdAt,value
2018-10-19T00:00:07.948Z,20.40
2018-10-19T00:02:33.474Z,20.40
2018-10-19T00:04:58.993Z,20.40
2018-10-19T00:07:24.435Z,20.40
2018-10-19T00:09:49.904Z,20.41
2018-10-19T00:12:15.444Z,20.40
2018-10-19T00:14:40.940Z,20.40
2018-10-19T00:17:06.503Z,20.40
2018-10-19T00:19:31.910Z,20.40
2018-10-19T00:21:57.384Z,20.40
2018-10-19T00:24:22.879Z,20.40
2018-10-19T00:26:48.380Z,20.39
2018-10-19T00:29:13.888Z,20.39
2018-10-19T00:31:39.395Z,20.39
2018-10-19T00:34:04.896Z,20.40
2018-10-19T00:36:30.393Z,20.40
2018-10-19T00:38:55.878Z,20.40
2018-10-19T00:41:21.336Z,20.39
2018-10-19T00:43:46.807Z,20.39
2018-10-19T00:46:12.280Z,20.39
2018-10-19T00:48:37.752Z,20.39
2018-10-19T00:51:03.335Z,20.39
2018-10-19T00:53:28.725Z,20.39
2018-10-19T00:55:54.214Z,20.39
2018-10-19T00:58:19.709Z,20.38
2018-10-19T01:00:45.180Z,20.39
2018-10-19T01:03:10.725Z,20.39
2018-10-19T01:05:36.147Z,20.39
2018-10-19T01:08:01.642Z,20.38
2018-10-19T01:10:27.113Z,20.38
2018-10-19T01:12:52.616Z,20.38
2018-10-19T01:15:18.168Z,20.38
2018-10-19T01:17:43.607Z,20.38
2018-10-19T01:20:09.108Z,20.38
2018-10-19T01:22:34.599Z,20.37
2018-10-19T01:25:00.074Z,20.37
2018-10-19T01:27:25.550Z,20.37
2018-10-19T01:29:51.048Z,20.37
2018-10-19T01:32:16.519Z,20.37
2018-10-19T01:34:42.013Z,20.38
2018-10-19T01:37:07.496Z,20.37
2018-10-19T01:39:32.984Z,20.37
2018-10-19T01:41:58.453Z,20.37
2018-10-19T01:44:23.920Z,20.37
2018-10-19T01:46:49.416Z,20.37
2018-10-19T01:49:14.893Z,20.37
2018-10-19T01:51:40.385Z,20.37
2018-10-19T01:54:05.861Z,20.37
2018-10-19T01:56:31.362Z,20.36
2018-10-19T01:58:56.853Z,20.36
2018-10-19T02:01:22.313Z,20.36
2018-10-19T02:03:47.784Z,20.37
2018-10-19T02:06:13.264Z,20.36
2018-10-19T02:08:38.759Z,20.36
2018-10-19T02:11:04.278Z,20.36
2018-10-19T02:13:29.745Z,20.36
2018-10-19T02:15:55.239Z,20.36
2018-10-19T02:18:20.709Z,20.36
2018-10-19T02:20:46.209Z,20.36
2018-10-19T02:23:11.783Z,20.35
2018-10-19T02:25:37.168Z,20.35
2018-10-19T02:28:02.637Z,20.35
2018-10-19T02:30:28.133Z,20.35
2018-10-19T02:32:53.628Z,20.35
2018-10-19T02:35:19.290Z,20.36
2018-10-19T02:37:44.632Z,20.35
2018-10-19T02:40:10.103Z,20.35
2018-10-19T02:42:35.601Z,20.35
2018-10-19T02:45:01.115Z,20.35
2018-10-19T02:47:26.567Z,20.35
2018-10-19T02:49:52.067Z,20.35
2018-10-19T02:52:17.563Z,20.35
2018-10-19T02:54:43.059Z,20.35
2018-10-19T02:57:08.655Z,20.35
2018-10-19T02:59:34.029Z,20.34
2018-10-19T03:01:59.498Z,20.34
2018-10-19T03:04:24.999Z,20.34
2018-10-19T03:06:50.477Z,20.34
2018-10-19T03:09:15.976Z,20.34
2018-10-19T03:11:41.506Z,20.34
2018-10-19T03:14:06.912Z,20.34
2018-10-19T03:16:32.415Z,20.34
2018-10-19T03:18:57.921Z,20.34
2018-10-19T03:21:23.392Z,20.34
2018-10-19T03:23:48.860Z,20.34
2018-10-19T03:26:14.332Z,20.35
2018-10-19T03:28:39.831Z,20.35
2018-10-19T03:31:05.355Z,20.37
2018-10-19T03:33:30.806Z,20.38
2018-10-19T03:35:56.280Z,20.39
2018-10-19T03:38:21.753Z,20.40
2018-10-19T03:40:47.257Z,20.42
2018-10-19T03:43:12.729Z,20.42
2018-10-19T03:45:38.203Z,20.43
2018-10-19T03:48:03.700Z,20.45
2018-10-19T03:50:29.197Z,20.46
2018-10-19T03:52:54.719Z,20.46
2018-10-19T03:55:20.137Z,20.48
2018-10-19T03:57:45.628Z,20.48
2018-10-19T04:00:11.127Z,20.49
2018-10-19T04:02:36.622Z,20.50
2018-10-19T04:05:02.147Z,20.50
2018-10-19T04:07:27.573Z,20.50
2018-10-19T04:09:53.066Z,20.52
2018-10-19T04:12:18.563Z,20.53
2018-10-19T04:14:44.056Z,20.54
2018-10-19T04:17:09.636Z,20.54
2018-10-19T04:19:35.029Z,20.55
2018-10-19T04:22:00.538Z,20.55
2018-10-19T04:24:26.041Z,20.55
2018-10-19T04:26:51.525Z,20.56
2018-10-19T04:29:17.059Z,20.55
2018-10-19T04:31:42.526Z,20.55
2018-10-19T04:34:07.996Z,20.56
2018-10-19T04:36:33.481Z,20.57
2018-10-19T04:38:58.958Z,20.57
2018-10-19T04:41:24.462Z,20.58
2018-10-19T04:43:49.925Z,20.59
2018-10-19T04:46:15.392Z,20.60
2018-10-19T04:48:40.872Z,20.62
2018-10-19T04:51:06.614Z,20.61
2018-10-19T04:53:32.818Z,20.61
2018-10-19T04:55:58.583Z,20.60
2018-10-19T04:58:24.086Z,20.59
2018-10-19T05:00:49.578Z,20.59
2018-10-19T05:03:15.300Z,20.59
2018-10-19T05:05:40.749Z,20.57
2018-10-19T05:08:06.349Z,20.57
2018-10-19T05:10:31.800Z,20.58
2018-10-19T05:12:57.314Z,20.58
2018-10-19T05:15:22.853Z,20.59
2018-10-19T05:17:48.342Z,20.58
2018-10-19T05:20:13.911Z,20.58
2018-10-19T05:22:39.327Z,20.58
2018-10-19T05:25:04.801Z,20.58
2018-10-19T05:27:30.307Z,20.58
2018-10-19T05:29:55.808Z,20.58
2018-10-19T05:32:21.297Z,20.58
2018-10-19T05:34:46.812Z,20.58
2018-10-19T05:37:12.303Z,20.58
2018-10-19T05:39:37.771Z,20.58
2018-10-19T05:42:03.267Z,20.58
2018-10-19T05:44:28.743Z,20.59
2018-10-19T05:46:54.261Z,20.58
2018-10-19T05:49:19.715Z,20.58
2018-10-19T05:51:45.215Z,20.58
2018-10-19T05:54:10.694Z,20.58
2018-10-19T05:56:36.195Z,20.59
2018-10-19T05:59:01.780Z,20.57
2018-10-19T06:01:27.207Z,20.60
2018-10-19T06:03:52.719Z,20.60
2018-10-19T06:06:18.250Z,20.61
2018-10-19T06:08:43.717Z,20.59
2018-10-19T06:11:09.263Z,20.58
2018-10-19T06:13:34.786Z,20.57
2018-10-19T06:16:00.210Z,20.57
2018-10-19T06:18:25.700Z,20.57
2018-10-19T06:20:51.224Z,20.56
2018-10-19T06:23:16.765Z,20.56
2018-10-19T06:25:42.180Z,20.55
2018-10-19T06:28:07.681Z,20.56
2018-10-19T06:30:33.158Z,20.56
2018-10-19T06:32:58.641Z,20.56
2018-10-19T06:35:24.118Z,20.56
2018-10-19T06:37:49.648Z,20.57
2018-10-19T06:40:15.182Z,20.57
2018-10-19T06:42:40.682Z,20.55
2018-10-19T06:45:06.159Z,20.55
2018-10-19T06:47:31.661Z,20.54
2018-10-19T06:49:57.200Z,20.55
2018-10-19T06:52:22.687Z,20.56
2018-10-19T06:54:48.233Z,20.56
2018-10-19T06:57:13.724Z,20.56
2018-10-19T06:59:39.232Z,20.56
2018-10-19T07:02:04.794Z,20.56
2018-10-19T07:04:30.214Z,20.56
2018-10-19T07:06:55.721Z,20.56
2018-10-19T07:09:21.233Z,20.57
2018-10-19T07:11:46.968Z,20.57
2018-10-19T07:14:12.453Z,20.59
2018-10-19T07:16:37.906Z,20.60
2018-10-19T07:19:03.434Z,20.61
2018-10-19T07:21:28.873Z,20.62
2018-10-19T07:23:54.364Z,20.60
2018-10-19T07:26:19.872Z,20.61
2018-10-19T07:28:45.346Z,20.59
2018-10-19T07:31:10.833Z,20.58
2018-10-19T07:33:36.327Z,20.58
2018-10-19T07:36:02.046Z,20.58
2018-10-19T07:38:27.492Z,20.57
2018-10-19T07:40:52.986Z,20.57
2018-10-19T07:43:18.496Z,20.56
2018-10-19T07:45:43.973Z,20.56
2018-10-19T07:48:09.722Z,20.57
2018-10-19T07:50:35.004Z,20.57
2018-10-19T07:53:00.560Z,20.56
2018-10-19T07:55:26.019Z,20.56
2018-10-19T07:57:51.608Z,20.57
2018-10-19T08:00:17.427Z,20.57
2018-10-19T08:02:42.884Z,20.57
2018-10-19T08:05:08.436Z,20.57
2018-10-19T08:07:33.968Z,20.58
2018-10-19T08:09:59.451Z,20.57
2018-10-19T08:12:24.950Z,20.58
2018-10-19T08:14:50.432Z,20.58
2018-10-19T08:17:16.022Z,20.57
2018-10-19T08:19:41.415Z,20.57
2018-10-19T08:22:06.892Z,20.57
2018-10-19T08:24:32.364Z,20.56
2018-10-19T08:26:57.844Z,20.57
2018-10-19T08:29:23.329Z,20.58
2018-10-19T08:31:48.940Z,20.58
2018-10-19T08:34:14.439Z,20.58
2018-10-19T08:36:40.338Z,20.57
2018-10-19T08:39:05.824Z,20.58
2018-10-19T08:41:31.372Z,20.57
2018-10-19T08:43:56.849Z,20.57
2018-10-19T08:46:22.363Z,20.57
2018-10-19T08:48:47.868Z,20.58
2018-10-19T08:51:13.511Z,20.57
2018-10-19T08:53:38.885Z,20.58
2018-10-19T08:56:04.331Z,20.58
2018-10-19T08:58:29.886Z,20.59
2018-10-19T09:00:55.384Z,20.59
2018-10-19T09:03:20.913Z,20.58
2018-10-19T09:05:46.365Z,20.57
2018-10-19T09:08:11.844Z,20.57
2018-10-19T09:10:37.312Z,20.57
2018-10-19T09:13:02.848Z,20.55
2018-10-19T09:15:28.335Z,20.57
2018-10-19T09:17:53.812Z,20.57
2018-10-19T09:20:19.312Z,20.58
2018-10-19T09:22:44.841Z,20.57
2018-10-19T09:25:10.344Z,20.57
2018-10-19T09:27:35.850Z,20.57
2018-10-19T09:30:01.387Z,20.56
2018-10-19T09:32:26.885Z,20.56
2018-10-19T09:34:52.392Z,20.56
2018-10-19T09:37:17.889Z,20.56
2018-10-19T09:39:43.388Z,20.56
2018-10-19T09:42:08.968Z,20.56
2018-10-19T09:44:34.392Z,20.56
2018-10-19T09:46:59.923Z,20.56
2018-10-19T09:49:25.397Z,20.56
2018-10-19T09:51:50.882Z,20.57
2018-10-19T09:54:16.344Z,20.57
2018-10-19T09:56:41.845Z,20.58
2018-10-19T09:59:07.426Z,20.57
2018-10-19T10:01:32.875Z,20.58
2018-10-19T10:03:58.379Z,20.59
2018-10-19T10:06:23.880Z,20.58
2018-10-19T10:08:49.389Z,20.58
2018-10-19T10:11:14.893Z,20.59
2018-10-19T10:13:40.393Z,20.59
2018-10-19T10:16:05.916Z,20.59
2018-10-19T10:18:31.417Z,20.60
2018-10-19T10:20:56.916Z,20.61
2018-10-19T10:23:22.391Z,20.61
2018-10-19T10:25:47.906Z,20.61
2018-10-19T10:28:13.542Z,20.61
2018-10-19T10:30:38.940Z,20.61
2018-10-19T10:33:04.431Z,20.62
2018-10-19T10:35:29.927Z,20.62
2018-10-19T10:37:55.427Z,20.63
2018-10-19T10:40:20.903Z,20.63
2018-10-19T10:42:46.383Z,20.63
2018-10-19T10:45:11.894Z,20.63
2018-10-19T10:47:37.397Z,20.63
2018-10-19T10:50:02.923Z,20.63
2018-10-19T10:52:28.399Z,20.63
2018-10-19T10:54:53.943Z,20.62
2018-10-19T10:57:19.377Z,20.63
2018-10-19T10:59:44.900Z,20.63
2018-10-19T11:02:10.374Z,20.63
2018-10-19T11:04:35.849Z,20.64
2018-10-19T11:07:01.379Z,20.63
2018-10-19T11:09:26.864Z,20.64
2018-10-19T11:11:52.341Z,20.63
2018-10-19T11:14:17.855Z,20.63
2018-10-19T11:16:43.353Z,20.64
2018-10-19T11:19:08.979Z,20.64
2018-10-19T11:21:34.372Z,20.63
2018-10-19T11:23:59.921Z,20.63
2018-10-19T11:26:25.378Z,20.62
2018-10-19T11:28:50.881Z,20.62
2018-10-19T11:31:16.485Z,20.62
2018-10-19T11:33:41.870Z,20.62
2018-10-19T11:36:07.368Z,20.62
2018-10-19T11:38:32.897Z,20.63
2018-10-19T11:40:58.388Z,20.63
2018-10-19T11:43:23.874Z,20.63
2018-10-19T11:45:49.396Z,20.63
2018-10-19T11:48:14.901Z,20.63
2018-10-19T11:50:40.378Z,20.64
2018-10-19T11:53:05.868Z,20.65
2018-10-19T11:55:31.372Z,20.64
2018-10-19T11:57:56.862Z,20.63
2018-10-19T12:00:22.363Z,20.63
2018-10-19T12:02:47.861Z,20.64
2018-10-19T12:05:13.375Z,20.65
2018-10-19T12:07:38.882Z,20.65
2018-10-19T12:10:04.407Z,20.64
2018-10-19T12:12:29.846Z,20.63
2018-10-19T12:14:55.371Z,20.64
2018-10-19T12:17:20.840Z,20.63
2018-10-19T12:19:46.331Z,20.63
2018-10-19T12:22:11.833Z,20.62
2018-10-19T12:24:37.325Z,20.62
2018-10-19T12:27:02.891Z,20.61
2018-10-19T12:29:28.340Z,20.61
2018-10-19T12:31:53.828Z,20.59
2018-10-19T12:34:19.333Z,20.61
2018-10-19T12:36:44.825Z,20.61
2018-10-19T12:39:10.357Z,20.62
2018-10-19T12:41:35.777Z,20.61
2018-10-19T12:44:01.269Z,20.62
2018-10-19T12:46:26.740Z,20.62
2018-10-19T12:48:52.253Z,20.62
2018-10-19T12:51:17.721Z,20.63
2018-10-19T12:53:43.258Z,20.61
2018-10-19T12:56:08.711Z,20.62
2018-10-19T12:58:34.221Z,20.63
2018-10-19T13:00:59.762Z,20.64
2018-10-19T13:03:25.452Z,20.64
2018-10-19T13:05:50.734Z,20.63
2018-10-19T13:08:16.234Z,20.63
2018-10-19T13:10:41.729Z,20.62
2018-10-19T13:13:07.316Z,20.61
2018-10-19T13:15:32.756Z,20.61
2018-10-19T13:17:58.318Z,20.61
2018-10-19T13:20:23.743Z,20.60
2018-10-19T13:22:49.261Z,20.63
2018-10-19T13:25:14.759Z,20.65
2018-10-19T13:27:40.256Z,20.64
2018-10-19T13:30:05.861Z,20.63
2018-10-19T13:32:31.306Z,20.61
2018-10-19T13:34:56.795Z,20.62
2018-10-19T13:37:22.310Z,20.63
2018-10-19T13:39:47.820Z,20.62
2018-10-19T13:42:13.306Z,20.62
2018-10-19T13:44:38.806Z,20.61
2018-10-19T13:47:04.333Z,20.60
2018-10-19T13:49:29.831Z,20.60
2018-10-19T13:51:55.303Z,20.61
2018-10-19T13:54:20.802Z,20.61
2018-10-19T13:56:46.358Z,20.62
2018-10-19T13:59:11.952Z,20.62
2018-10-19T14:01:37.351Z,20.63
2018-10-19T14:04:02.892Z,20.63
2018-10-19T14:06:28.378Z,20.63
2018-10-19T14:08:53.905Z,20.63
2018-10-19T14:11:19.417Z,20.63
2018-10-19T14:13:44.907Z,20.63
2018-10-19T14:16:10.395Z,20.64
2018-10-19T14:18:36.012Z,20.64
2018-10-19T14:21:01.536Z,20.63
2018-10-19T14:23:26.996Z,20.65
2018-10-19T14:25:52.506Z,20.65
2018-10-19T14:28:18.003Z,20.64
2018-10-19T14:30:43.494Z,20.65
2018-10-19T14:33:09.061Z,20.64
2018-10-19T14:35:34.487Z,20.64
2018-10-19T14:37:59.995Z,20.63
2018-10-19T14:40:25.478Z,20.63
2018-10-19T14:42:50.980Z,20.63
2018-10-19T14:45:16.550Z,20.61
2018-10-19T14:47:42.034Z,20.61
2018-10-19T14:50:07.552Z,20.61
2018-10-19T14:52:33.080Z,20.61
2018-10-19T14:54:58.609Z,20.60
2018-10-19T14:57:24.114Z,20.60
2018-10-19T14:59:49.635Z,20.60
2018-10-19T15:02:15.257Z,20.59
2018-10-19T15:04:40.790Z,20.60
2018-10-19T15:07:06.438Z,20.59
2018-10-19T15:09:31.982Z,20.59
2018-10-19T15:11:57.485Z,20.58
2018-10-19T15:14:22.971Z,20.59
2018-10-19T15:16:48.531Z,20.58
2018-10-19T15:19:14.045Z,20.58
2018-10-19T15:21:39.531Z,20.57
2018-10-19T15:24:05.038Z,20.57
2018-10-19T15:26:30.569Z,20.56
2018-10-19T15:28:56.025Z,20.56
2018-10-19T15:31:21.495Z,20.56
2018-10-19T15:33:47.014Z,20.55
2018-10-19T15:36:12.537Z,20.55
2018-10-19T15:38:38.010Z,20.54
2018-10-19T15:41:03.553Z,20.56
2018-10-19T15:43:29.049Z,20.57
2018-10-19T15:45:54.550Z,20.58
2018-10-19T15:48:20.120Z,20.59
2018-10-19T15:50:45.617Z,20.61
2018-10-19T15:53:11.164Z,20.63
2018-10-19T15:55:36.657Z,20.65
2018-10-19T15:58:02.196Z,20.64
2018-10-19T16:00:27.866Z,20.66
2018-10-19T16:02:53.163Z,20.67
2018-10-19T16:05:18.706Z,20.68
2018-10-19T16:07:44.386Z,20.71
2018-10-19T16:10:09.944Z,20.69
2018-10-19T16:12:35.432Z,20.69
2018-10-19T16:15:00.951Z,20.68
2018-10-19T16:17:27.355Z,20.72
2018-10-19T16:19:52.820Z,20.73
2018-10-19T16:22:18.621Z,20.73
2018-10-19T16:24:44.129Z,20.73
2018-10-19T16:27:10.204Z,20.72
2018-10-19T16:29:35.675Z,20.73
2018-10-19T16:32:01.227Z,20.74
2018-10-19T16:34:26.750Z,20.76
2018-10-19T16:36:52.278Z,20.76
2018-10-19T16:39:17.810Z,20.77
2018-10-19T16:41:43.421Z,20.79
2018-10-19T16:44:08.902Z,20.80
2018-10-19T16:46:34.394Z,20.81
2018-10-19T16:48:59.892Z,20.81
2018-10-19T16:51:25.398Z,20.81
2018-10-19T16:53:50.897Z,20.82
2018-10-19T16:56:16.460Z,20.85
2018-10-19T16:58:41.952Z,20.85
2018-10-19T17:01:07.434Z,20.85
2018-10-19T17:03:33.001Z,20.85
2018-10-19T17:05:58.679Z,20.86
2018-10-19T17:08:24.156Z,20.87
2018-10-19T17:10:49.672Z,20.89
2018-10-19T17:13:15.184Z,20.87
2018-10-19T17:15:40.693Z,20.87
2018-10-19T17:18:06.244Z,20.90
2018-10-19T17:20:31.710Z,20.91
2018-10-19T17:22:57.214Z,20.92
2018-10-19T17:25:22.903Z,20.91
2018-10-19T17:27:48.203Z,20.93
2018-10-19T17:30:13.798Z,20.92
2018-10-19T17:32:39.304Z,20.93
2018-10-19T17:35:04.849Z,20.92
2018-10-19T17:37:30.333Z,20.93
2018-10-19T17:39:55.786Z,20.94
2018-10-19T17:42:21.283Z,20.93
2018-10-19T17:44:46.784Z,20.95
2018-10-19T17:47:12.366Z,20.95
2018-10-19T17:49:37.839Z,20.96
2018-10-19T17:52:03.376Z,20.95
2018-10-19T17:54:28.967Z,20.95
2018-10-19T17:56:54.412Z,20.96
2018-10-19T17:59:19.888Z,20.96
2018-10-19T18:01:45.405Z,20.98
2018-10-19T18:04:10.945Z,20.99
2018-10-19T18:06:36.449Z,20.96
2018-10-19T18:09:01.998Z,20.98
2018-10-19T18:11:27.452Z,20.98
2018-10-19T18:13:52.943Z,20.99
2018-10-19T18:16:18.438Z,21.00
2018-10-19T18:18:43.931Z,20.99
2018-10-19T18:21:09.556Z,20.99
2018-10-19T18:23:35.260Z,20.97
2018-10-19T18:26:01.382Z,20.95
2018-10-19T18:28:26.797Z,20.95
2018-10-19T18:30:52.377Z,20.94
2018-10-19T18:33:18.223Z,20.94
2018-10-19T18:35:43.743Z,20.92
2018-10-19T18:38:09.367Z,20.92
2018-10-19T18:40:35.416Z,20.92
2018-10-19T18:43:01.935Z,20.91
2018-10-19T18:45:27.523Z,20.92
2018-10-19T18:47:53.118Z,20.91
2018-10-19T18:50:18.636Z,20.90
2018-10-19T18:52:44.007Z,20.89
2018-10-19T18:55:09.586Z,20.88
2018-10-19T18:57:35.025Z,20.87
2018-10-19T19:00:00.587Z,20.87
2018-10-19T19:02:26.075Z,20.86
2018-10-19T19:04:51.573Z,20.86
2018-10-19T19:07:17.063Z,20.85
2018-10-19T19:09:42.607Z,20.85
2018-10-19T19:12:08.116Z,20.84
2018-10-19T19:14:33.614Z,20.85
2018-10-19T19:16:59.109Z,20.84
2018-10-19T19:19:24.586Z,20.84
2018-10-19T19:21:50.075Z,20.82
2018-10-19T19:24:15.562Z,20.84
2018-10-19T19:26:41.050Z,20.83
2018-10-19T19:29:06.701Z,20.82
2018-10-19T19:31:32.061Z,20.82
2018-10-19T19:33:57.570Z,20.81
2018-10-19T19:36:23.046Z,20.82
2018-10-19T19:38:48.580Z,20.83
2018-10-19T19:41:14.196Z,20.82
2018-10-19T19:43:39.614Z,20.81
2018-10-19T19:46:05.113Z,20.80
2018-10-19T19:48:30.607Z,20.81
2018-10-19T19:50:56.114Z,20.81
2018-10-19T19:53:21.609Z,20.81
2018-10-19T19:55:47.100Z,20.80
2018-10-19T19:58:12.663Z,20.81
2018-10-19T20:00:38.079Z,20.81
2018-10-19T20:03:03.571Z,20.81
2018-10-19T20:05:29.076Z,20.81
2018-10-19T20:07:54.622Z,20.80
2018-10-19T20:10:20.058Z,20.80
2018-10-19T20:12:45.552Z,20.81
2018-10-19T20:15:11.057Z,20.80
2018-10-19T20:17:36.549Z,20.79
2018-10-19T20:20:02.171Z,20.80
2018-10-19T20:22:27.542Z,20.79
2018-10-19T20:24:53.083Z,20.79
2018-10-19T20:27:18.579Z,20.80
2018-10-19T20:29:44.073Z,20.79
2018-10-19T20:32:09.586Z,20.79
2018-10-19T20:34:35.057Z,20.80
2018-10-19T20:37:00.548Z,20.81
2018-10-19T20:39:26.037Z,20.83
2018-10-19T20:41:51.544Z,20.83
2018-10-19T20:44:17.190Z,20.86
2018-10-19T20:46:42.553Z,20.85
2018-10-19T20:49:08.042Z,20.85
2018-10-19T20:51:33.558Z,20.83
2018-10-19T20:53:59.039Z,20.83
2018-10-19T20:56:24.535Z,20.83
2018-10-19T20:58:50.026Z,20.82
2018-10-19T21:01:15.516Z,20.82
2018-10-19T21:03:41.006Z,20.82
2018-10-19T21:06:06.498Z,20.81
2018-10-19T21:08:31.982Z,20.81
2018-10-19T21:10:57.545Z,20.79
2018-10-19T21:13:23.003Z,20.79
2018-10-19T21:15:48.446Z,20.78
2018-10-19T21:18:13.981Z,20.78
2018-10-19T21:20:39.476Z,20.76
2018-10-19T21:23:04.994Z,20.76
2018-10-19T21:25:30.472Z,20.75
2018-10-19T21:27:55.989Z,20.75
2018-10-19T21:30:21.489Z,20.74
2018-10-19T21:32:46.977Z,20.74
2018-10-19T21:35:12.517Z,20.74
2018-10-19T21:37:38.267Z,20.74
2018-10-19T21:40:03.804Z,20.73
2018-10-19T21:42:29.290Z,20.73
2018-10-19T21:44:54.782Z,20.72
2018-10-19T21:47:20.282Z,20.72
2018-10-19T21:49:45.782Z,20.72
2018-10-19T21:52:11.278Z,20.71
2018-10-19T21:54:36.769Z,20.70
2018-10-19T21:57:02.310Z,20.70
2018-10-19T21:59:27.827Z,20.70
2018-10-19T22:01:53.321Z,20.70
2018-10-19T22:04:18.821Z,20.69
2018-10-19T22:06:44.323Z,20.69
2018-10-19T22:09:09.815Z,20.68
2018-10-19T22:11:35.323Z,20.67
2018-10-19T22:14:00.815Z,20.68
2018-10-19T22:16:26.310Z,20.67
2018-10-19T22:18:51.800Z,20.67
2018-10-19T22:21:17.298Z,20.66
2018-10-19T22:23:42.790Z,20.67
2018-10-19T22:26:08.364Z,20.67
2018-10-19T22:28:33.794Z,20.66
2018-10-19T22:30:59.290Z,20.66
2018-10-19T22:33:24.787Z,20.66
2018-10-19T22:35:50.280Z,20.65
2018-10-19T22:38:15.776Z,20.65
2018-10-19T22:40:41.276Z,20.64
2018-10-19T22:43:06.826Z,20.64
2018-10-19T22:45:32.263Z,20.65
2018-10-19T22:47:57.757Z,20.63
2018-10-19T22:50:23.249Z,20.64
2018-10-19T22:52:48.750Z,20.63
2018-10-19T22:55:14.343Z,20.64
2018-10-19T22:57:39.754Z,20.63
2018-10-19T23:00:05.251Z,20.63
2018-10-19T23:02:30.761Z,20.63
2018-10-19T23:04:56.282Z,20.63
2018-10-19T23:07:21.742Z,20.63
2018-10-19T23:09:47.399Z,20.61
2018-10-19T23:12:12.763Z,20.61
2018-10-19T23:14:38.262Z,20.61
2018-10-19T23:17:03.792Z,20.61
2018-10-19T23:19:29.259Z,20.61
2018-10-19T23:21:54.821Z,20.60
2018-10-19T23:24:20.319Z,20.61
2018-10-19T23:26:45.810Z,20.60
2018-10-19T23:29:11.539Z,20.60
2018-10-19T23:31:36.978Z,20.60
2018-10-19T23:34:02.358Z,20.59
2018-10-19T23:36:27.877Z,20.60
2018-10-19T23:38:53.377Z,20.59
2018-10-19T23:41:18.878Z,20.59
2018-10-19T23:43:44.421Z,20.59
2018-10-19T23:46:09.873Z,20.59
2018-10-19T23:48:35.409Z,20.59
2018-10-19T23:51:00.900Z,20.59
2018-10-19T23:53:26.405Z,20.58
2018-10-19T23:55:51.897Z,20.58
2018-10-19T23:58:17.387Z,20.57
